Погода Карасна неделю

Карас, Намибия

03 - 09 марта
  • 03марта
    Сегодня
    +18°
    +38°
    Ясно и безоблачно
    ВремяПогодаТемператураВлажностьДавлениеВетер, м/сВероятность осадков
    02:00Облачно с прояснениями+27°C35 %679 мм2.7 м/с2 %
    05:00Ясно и безоблачно+25°C39 %678 мм0.7 м/с6 %
    08:00Ясно и безоблачно+25°C38 %679 мм0.8 м/с3 %
    11:00Ясно и безоблачно+32°C24 %679 мм1.7 м/с5 %
    14:00Ясно и безоблачно+38°C7 %678 мм8.3 м/с5 %
    17:00Ясно и безоблачно+36°C5 %677 мм9.0 м/с5 %
    20:00Ясно и безоблачно+31°C9 %677 мм6.6 м/с5 %
    23:00Ясно и безоблачно+27°C23 %677 мм4.3 м/с5 %
  • 04марта
    Понедельник
    +11°
    +33°
    Практически безоблачно
    ВремяПогодаТемператураВлажностьДавлениеВетер, м/сВероятность осадков
    02:00Облачно с прояснениями+23°C42 %676 мм3.9 м/с5 %
    05:00Облачно с прояснениями+20°C57 %676 мм3.2 м/с5 %
    08:00Облачно с прояснениями+18°C58 %677 мм1.3 м/с5 %
    11:00Небольшая облачность+27°C23 %678 мм2.7 м/с5 %
    14:00Практически безоблачно+33°C14 %677 мм8.4 м/с5 %
    17:00Небольшая облачность+32°C19 %676 мм8.8 м/с5 %
    20:00Практически безоблачно+25°C33 %676 мм6.5 м/с5 %
    23:00Небольшая облачность+19°C50 %678 мм5.5 м/с5 %
  • 05марта
    Вторник
    +14°
    +29°
    Ясно и безоблачно
    ВремяПогодаТемператураВлажностьДавлениеВетер, м/сВероятность осадков
    02:00Облачно с прояснениями+16°C70 %677 мм4.2 м/с5 %
    05:00Ясно и безоблачно+13°C83 %677 мм3.0 м/с5 %
    08:00Ясно и безоблачно+13°C83 %678 мм0.6 м/с5 %
    11:00Небольшая облачность+19°C37 %678 мм0.7 м/с5 %
    14:00Ясно и безоблачно+26°C19 %678 мм0.3 м/с5 %
    17:00Ясно и безоблачно+29°C16 %676 мм1.9 м/с5 %
    20:00Ясно и безоблачно+27°C14 %677 мм5.0 м/с5 %
    23:00Практически безоблачно+23°C12 %677 мм3.7 м/с5 %
  • 06марта
    Среда
    +18°
    +36°
    Ясно и безоблачно
    ВремяПогодаТемператураВлажностьДавлениеВетер, м/сВероятность осадков
    02:00Ясно и безоблачно+19°C21 %677 мм2.7 м/с5 %
    05:00Ясно и безоблачно+17°C32 %676 мм0.7 м/с5 %
    08:00Ясно и безоблачно+18°C30 %677 мм1.7 м/с5 %
    11:00Ясно и безоблачно+27°C12 %678 мм3.6 м/с5 %
    14:00Ясно и безоблачно+33°C10 %677 мм2.8 м/с5 %
    17:00Ясно и безоблачно+34°C11 %676 мм6.9 м/с5 %
    20:00Ясно и безоблачно+28°C17 %677 мм6.5 м/с5 %
    23:00Ясно и безоблачно+25°C32 %679 мм3.0 м/с5 %
  • 07марта
    Четверг
    +16°
    +36°
    Ясно и безоблачно
    ВремяПогодаТемператураВлажностьДавлениеВетер, м/сВероятность осадков
    02:00Ясно и безоблачно+22°C38 %678 мм1.1 м/с5 %
    05:00Ясно и безоблачно+19°C42 %677 мм2.0 м/с5 %
    08:00Ясно и безоблачно+20°C37 %678 мм1.0 м/с5 %
    11:00Ясно и безоблачно+27°C23 %679 мм0.5 м/с5 %
    14:00Ясно и безоблачно+34°C17 %678 мм2.1 м/с5 %
    17:00Ясно и безоблачно+35°C11 %677 мм6.5 м/с5 %
    20:00Ясно и безоблачно+30°C20 %678 мм6.6 м/с5 %
    23:00Ясно и безоблачно+25°C32 %679 мм4.7 м/с5 %
Мы используем cookies
Соглашаюсь